createdAt,value
2023-03-22T00:01:19.914Z,10.20
2023-03-22T00:03:22.935Z,10.20
2023-03-22T00:05:25.446Z,10.20
2023-03-22T00:07:28.116Z,10.20
2023-03-22T00:09:30.988Z,10.20
2023-03-22T00:11:33.522Z,10.20
2023-03-22T00:13:39.483Z,10.20
2023-03-22T00:15:45.641Z,10.20
2023-03-22T00:17:48.152Z,11.20
2023-03-22T00:19:50.533Z,10.20
2023-03-22T00:21:52.891Z,10.20
2023-03-22T00:23:55.361Z,10.10
2023-03-22T00:25:58.182Z,10.60
2023-03-22T00:28:02.054Z,10.10
2023-03-22T00:30:09.270Z,10.10
2023-03-22T00:32:11.872Z,10.10
2023-03-22T00:34:14.394Z,10.10
2023-03-22T00:36:16.966Z,10.00
2023-03-22T00:38:23.350Z,10.10
2023-03-22T00:40:29.744Z,10.00
2023-03-22T00:42:32.140Z,10.00
2023-03-22T00:44:34.602Z,10.00
2023-03-22T00:46:39.674Z,10.00
2023-03-22T00:48:42.470Z,10.00
2023-03-22T00:50:45.048Z,10.00
2023-03-22T00:52:47.660Z,10.00
2023-03-22T00:54:50.380Z,10.00
2023-03-22T00:56:53.490Z,9.90
2023-03-22T00:58:56.307Z,9.90
2023-03-22T01:00:58.817Z,9.90
2023-03-22T01:03:05.716Z,10.50
2023-03-22T01:05:09.507Z,9.90
2023-03-22T01:07:17.737Z,9.90
2023-03-22T01:09:24.054Z,9.90
2023-03-22T01:11:27.260Z,9.90
2023-03-22T01:13:29.833Z,10.90
2023-03-22T01:15:33.684Z,9.90
2023-03-22T01:17:36.224Z,10.40
2023-03-22T01:19:41.526Z,9.80
2023-03-22T01:21:44.098Z,9.80
2023-03-22T01:23:46.833Z,9.80
2023-03-22T01:25:49.443Z,9.80
2023-03-22T01:27:51.904Z,9.80
2023-03-22T01:29:54.258Z,9.80
2023-03-22T01:31:57.012Z,9.80
2023-03-22T01:33:59.481Z,9.80
2023-03-22T01:36:05.859Z,9.80
2023-03-22T01:38:10.756Z,9.80
2023-03-22T01:40:20.481Z,10.30
2023-03-22T01:42:24.297Z,9.80
2023-03-22T01:44:30.909Z,9.80
2023-03-22T01:46:34.833Z,9.70
2023-03-22T01:48:42.239Z,9.90
2023-03-22T01:50:51.816Z,10.00
2023-03-22T01:52:57.710Z,9.70
2023-03-22T01:55:09.494Z,9.70
2023-03-22T01:57:23.459Z,9.70
2023-03-22T01:59:26.993Z,9.70
2023-03-22T02:01:49.691Z,9.70
2023-03-22T02:03:58.543Z,9.60
2023-03-22T02:06:02.146Z,9.70
2023-03-22T02:08:08.960Z,9.70
2023-03-22T02:10:40.990Z,9.60
2023-03-22T02:12:57.269Z,9.60
2023-03-22T02:15:24.248Z,9.60
2023-03-22T02:18:16.655Z,9.80
2023-03-22T02:21:03.486Z,9.60
2023-03-22T02:23:37.255Z,9.60
2023-03-22T02:26:18.821Z,9.60
2023-03-22T02:28:31.645Z,9.60
2023-03-22T02:30:56.177Z,9.60
2023-03-22T02:33:31.065Z,9.60
2023-03-22T02:36:13.687Z,9.60
2023-03-22T02:38:47.698Z,9.60
2023-03-22T02:40:54.679Z,9.50
2023-03-22T02:43:01.231Z,9.60
2023-03-22T02:45:11.448Z,9.60
2023-03-22T02:47:22.675Z,9.60
2023-03-22T02:49:33.666Z,10.00
2023-03-22T02:51:41.285Z,9.60
2023-03-22T02:53:51.366Z,9.60
2023-03-22T02:55:58.427Z,9.60
2023-03-22T02:58:06.777Z,9.70
2023-03-22T03:00:13.150Z,9.60
2023-03-22T03:02:19.772Z,9.70
2023-03-22T03:04:27.665Z,9.70
2023-03-22T03:06:35.879Z,9.70
2023-03-22T03:08:39.580Z,9.70
2023-03-22T03:10:46.232Z,9.70
2023-03-22T03:12:48.774Z,9.60
2023-03-22T03:14:51.713Z,9.60
2023-03-22T03:17:11.253Z,9.60
2023-03-22T03:19:20.462Z,9.70
2023-03-22T03:21:32.792Z,9.60
2023-03-22T03:23:47.251Z,9.60
2023-03-22T03:25:59.591Z,9.60
2023-03-22T03:28:10.178Z,9.60
2023-03-22T03:30:15.669Z,9.70
2023-03-22T03:32:25.778Z,9.60
2023-03-22T03:34:33.499Z,9.60
2023-03-22T03:36:39.251Z,9.20
2023-03-22T03:38:46.169Z,9.70
2023-03-22T03:40:55.924Z,9.60
2023-03-22T03:43:02.487Z,9.60
2023-03-22T03:45:08.650Z,9.60
2023-03-22T03:47:16.276Z,9.60
2023-03-22T03:49:19.289Z,9.70
2023-03-22T03:51:21.696Z,9.70
2023-03-22T03:53:24.396Z,9.90
2023-03-22T03:55:28.108Z,9.90
2023-03-22T03:57:33.180Z,9.70
2023-03-22T03:59:35.955Z,9.60
2023-03-22T04:01:50.486Z,9.70
2023-03-22T04:03:57.391Z,9.70
2023-03-22T04:06:03.910Z,9.70
2023-03-22T04:08:10.772Z,9.70
2023-03-22T04:10:13.705Z,10.00
2023-03-22T04:12:16.560Z,9.70
2023-03-22T04:14:30.419Z,9.70
2023-03-22T04:16:36.829Z,9.60
2023-03-22T04:18:39.931Z,9.70
2023-03-22T04:20:46.473Z,9.60
2023-03-22T04:22:49.241Z,9.60
2023-03-22T04:24:51.701Z,9.70
2023-03-22T04:26:57.418Z,9.60
2023-03-22T04:29:03.223Z,9.60
2023-03-22T04:31:09.372Z,9.60
2023-03-22T04:33:23.243Z,9.60
2023-03-22T04:35:46.362Z,9.60
2023-03-22T04:37:49.665Z,9.60
2023-03-22T04:39:55.237Z,9.60
2023-03-22T04:42:23.917Z,9.60
2023-03-22T04:44:36.230Z,9.60
2023-03-22T04:46:42.837Z,9.70
2023-03-22T04:48:46.036Z,9.60
2023-03-22T04:50:49.037Z,10.20
2023-03-22T04:52:51.628Z,9.70
2023-03-22T04:54:54.620Z,9.70
2023-03-22T04:56:57.171Z,9.70
2023-03-22T04:59:01.728Z,9.90
2023-03-22T05:01:04.249Z,9.80
2023-03-22T05:03:10.002Z,9.80
2023-03-22T05:05:16.790Z,9.70
2023-03-22T05:07:22.399Z,9.80
2023-03-22T05:09:29.419Z,10.10
2023-03-22T05:11:32.845Z,9.80
2023-03-22T05:13:55.858Z,9.80
2023-03-22T05:16:02.216Z,9.80
2023-03-22T05:18:17.757Z,9.90
2023-03-22T05:20:20.298Z,9.90
2023-03-22T05:22:34.813Z,10.30
2023-03-22T05:24:37.253Z,10.00
2023-03-22T05:26:42.495Z,10.00
2023-03-22T05:28:47.274Z,9.90
2023-03-22T05:30:59.540Z,10.00
2023-03-22T05:33:09.565Z,10.00
2023-03-22T05:35:20.481Z,10.00
2023-03-22T05:37:27.974Z,10.20
2023-03-22T05:39:32.068Z,10.00
2023-03-22T05:41:36.635Z,10.00
2023-03-22T05:43:40.471Z,10.30
2023-03-22T05:45:43.074Z,10.00
2023-03-22T05:47:59.136Z,10.00
2023-03-22T05:50:03.293Z,10.10
2023-03-22T05:52:10.218Z,10.00
2023-03-22T05:54:28.439Z,10.00
2023-03-22T05:56:30.959Z,10.00
2023-03-22T05:58:42.439Z,11.00
2023-03-22T06:00:50.029Z,10.00
2023-03-22T06:03:21.680Z,10.10
2023-03-22T06:05:46.693Z,10.00
2023-03-22T06:07:52.241Z,10.00
2023-03-22T06:09:57.802Z,10.00
2023-03-22T06:12:05.491Z,10.20
2023-03-22T06:14:08.569Z,10.00
2023-03-22T06:16:32.064Z,10.00
2023-03-22T06:18:34.474Z,10.00
2023-03-22T06:20:44.936Z,10.00
2023-03-22T06:22:56.977Z,10.00
2023-03-22T06:24:59.767Z,10.00
2023-03-22T06:27:11.411Z,10.10
2023-03-22T06:29:15.886Z,10.10
2023-03-22T06:31:18.530Z,10.20
2023-03-22T06:33:31.094Z,10.10
2023-03-22T06:35:42.789Z,10.40
2023-03-22T06:37:49.243Z,10.20
2023-03-22T06:39:54.281Z,10.20
2023-03-22T06:42:06.706Z,10.20
2023-03-22T06:44:09.525Z,10.20
2023-03-22T06:46:41.536Z,10.80
2023-03-22T06:49:08.083Z,10.20
2023-03-22T06:51:11.007Z,10.20
2023-03-22T06:53:14.165Z,10.30
2023-03-22T06:55:19.327Z,10.30
2023-03-22T06:57:21.724Z,10.30
2023-03-22T06:59:24.243Z,10.70
2023-03-22T07:01:26.768Z,10.40
2023-03-22T07:03:29.520Z,10.40
2023-03-22T07:05:38.480Z,10.40
2023-03-22T07:07:42.049Z,10.50
2023-03-22T07:09:44.928Z,10.50
2023-03-22T07:11:51.178Z,11.60
2023-03-22T07:13:54.356Z,10.60
2023-03-22T07:15:58.998Z,10.90
2023-03-22T07:18:10.609Z,10.70
2023-03-22T07:20:14.875Z,10.80
2023-03-22T07:22:17.816Z,10.80
2023-03-22T07:24:21.109Z,10.80
2023-03-22T07:26:24.711Z,10.80
2023-03-22T07:28:31.464Z,11.00
2023-03-22T07:30:37.719Z,10.80
2023-03-22T07:32:41.420Z,10.80
2023-03-22T07:34:47.169Z,10.80
2023-03-22T07:36:51.973Z,10.90
2023-03-22T07:38:54.342Z,10.90
2023-03-22T07:41:04.937Z,10.90
2023-03-22T07:43:24.602Z,10.80
2023-03-22T07:45:35.320Z,10.80
2023-03-22T07:47:56.264Z,11.30
2023-03-22T07:50:28.056Z,10.80
2023-03-22T07:52:32.684Z,11.20
2023-03-22T07:54:35.605Z,10.80
2023-03-22T07:56:42.680Z,10.70
2023-03-22T07:58:45.244Z,10.80
2023-03-22T08:00:51.010Z,10.80
2023-03-22T08:03:13.367Z,10.50
2023-03-22T08:05:31.450Z,10.80
2023-03-22T08:07:37.673Z,10.90
2023-03-22T08:09:40.438Z,11.00
2023-03-22T08:11:43.443Z,11.10
2023-03-22T08:13:46.376Z,11.30
2023-03-22T08:15:52.615Z,11.30
2023-03-22T08:17:58.828Z,11.40
2023-03-22T08:20:09.998Z,11.40
2023-03-22T08:22:25.990Z,11.30
2023-03-22T08:24:48.132Z,11.90
2023-03-22T08:27:01.459Z,11.30
2023-03-22T08:29:14.746Z,11.20
2023-03-22T08:31:24.604Z,11.20
2023-03-22T08:33:28.132Z,11.30
2023-03-22T08:35:30.763Z,11.30
2023-03-22T08:37:33.457Z,11.30
2023-03-22T08:39:38.828Z,11.40
2023-03-22T08:41:56.392Z,11.40
2023-03-22T08:44:02.332Z,11.40
2023-03-22T08:46:06.703Z,11.40
2023-03-22T08:48:12.146Z,11.50
2023-03-22T08:50:41.140Z,11.60
2023-03-22T08:52:56.651Z,11.50
2023-03-22T08:55:08.909Z,11.50
2023-03-22T08:57:24.010Z,11.50
2023-03-22T08:59:36.063Z,11.60
2023-03-22T09:01:58.067Z,11.60
2023-03-22T09:04:05.733Z,11.70
2023-03-22T09:06:09.839Z,12.00
2023-03-22T09:08:19.270Z,11.80
2023-03-22T09:10:23.837Z,11.80
2023-03-22T09:12:26.468Z,12.00
2023-03-22T09:14:29.546Z,11.80
2023-03-22T09:16:35.572Z,11.90
2023-03-22T09:18:38.707Z,11.80
2023-03-22T09:20:49.277Z,11.80
2023-03-22T09:22:54.920Z,11.70
2023-03-22T09:24:58.988Z,11.70
2023-03-22T09:27:01.476Z,11.60
2023-03-22T09:29:04.341Z,11.70
2023-03-22T09:31:09.676Z,11.40
2023-03-22T09:33:13.236Z,11.60
2023-03-22T09:35:18.728Z,11.70
2023-03-22T09:37:34.429Z,11.60
2023-03-22T09:39:38.568Z,11.70
2023-03-22T09:41:46.683Z,12.00
2023-03-22T09:43:54.170Z,11.70
2023-03-22T09:45:57.326Z,11.70
2023-03-22T09:48:00.020Z,12.00
2023-03-22T09:50:08.719Z,11.80
2023-03-22T09:52:15.009Z,11.80
2023-03-22T09:54:29.717Z,11.70
2023-03-22T09:56:32.855Z,11.70
2023-03-22T09:58:42.790Z,11.60
2023-03-22T10:00:48.612Z,11.60
2023-03-22T10:02:59.565Z,11.60
2023-03-22T10:05:13.562Z,11.60
2023-03-22T10:07:27.301Z,11.50
2023-03-22T10:09:41.406Z,11.40
2023-03-22T10:11:47.188Z,11.30
2023-03-22T10:13:57.785Z,11.30
2023-03-22T10:16:02.645Z,11.60
2023-03-22T10:18:09.294Z,11.70
2023-03-22T10:20:27.605Z,11.10
2023-03-22T10:22:34.237Z,11.00
2023-03-22T10:24:41.374Z,11.00
2023-03-22T10:26:47.643Z,11.00
2023-03-22T10:28:55.645Z,11.40
2023-03-22T10:30:58.764Z,10.90
2023-03-22T10:33:03.349Z,10.90
2023-03-22T10:35:06.823Z,10.90
2023-03-22T10:37:13.597Z,10.80
2023-03-22T10:39:28.586Z,10.90
2023-03-22T10:41:34.443Z,11.80
2023-03-22T10:43:39.393Z,10.70
2023-03-22T10:45:43.405Z,10.70
2023-03-22T10:47:50.014Z,10.60
2023-03-22T10:49:57.515Z,10.60
2023-03-22T10:52:03.680Z,10.30
2023-03-22T10:54:06.624Z,10.60
2023-03-22T10:56:13.912Z,10.60
2023-03-22T10:58:21.625Z,10.60
2023-03-22T11:00:24.930Z,10.60
2023-03-22T11:02:29.887Z,10.60
2023-03-22T11:04:33.568Z,10.60
2023-03-22T11:06:40.834Z,10.50
2023-03-22T11:08:45.820Z,10.60
2023-03-22T11:10:52.559Z,11.20
2023-03-22T11:13:10.655Z,10.60
2023-03-22T11:15:27.756Z,11.50
2023-03-22T11:17:31.574Z,10.60
2023-03-22T11:19:36.413Z,10.60
2023-03-22T11:21:43.532Z,10.70
2023-03-22T11:23:55.942Z,11.60
2023-03-22T11:26:06.938Z,10.70
2023-03-22T11:28:17.924Z,10.70
2023-03-22T11:30:26.131Z,10.80
2023-03-22T11:32:30.899Z,10.70
2023-03-22T11:34:33.474Z,11.10
2023-03-22T11:36:44.255Z,10.70
2023-03-22T11:38:47.441Z,10.70
2023-03-22T11:40:58.013Z,10.70
2023-03-22T11:43:12.967Z,10.70
2023-03-22T11:45:18.560Z,10.70
2023-03-22T11:47:26.242Z,10.70
2023-03-22T11:49:38.148Z,10.80
2023-03-22T11:51:42.380Z,10.80
2023-03-22T11:53:46.550Z,11.40
2023-03-22T11:55:50.449Z,11.60
2023-03-22T11:57:55.997Z,10.80
2023-03-22T12:00:02.376Z,10.80
2023-03-22T12:02:18.428Z,11.60
2023-03-22T12:04:28.076Z,10.80
2023-03-22T12:06:34.434Z,10.80
2023-03-22T12:08:45.109Z,10.80
2023-03-22T12:10:51.531Z,10.80
2023-03-22T12:12:58.268Z,10.70
2023-03-22T12:15:05.179Z,11.50
2023-03-22T12:17:14.207Z,10.80
2023-03-22T12:19:31.185Z,11.00
2023-03-22T12:21:35.168Z,10.80
2023-03-22T12:23:38.560Z,10.80
2023-03-22T12:25:43.017Z,10.80
2023-03-22T12:27:52.706Z,10.80
2023-03-22T12:30:01.108Z,10.80
2023-03-22T12:32:09.946Z,11.90
2023-03-22T12:34:17.112Z,10.80
2023-03-22T12:36:27.852Z,11.60
2023-03-22T12:38:37.793Z,10.80
2023-03-22T12:40:41.651Z,10.90
2023-03-22T12:42:58.236Z,10.80
2023-03-22T12:45:05.834Z,11.10
2023-03-22T12:47:17.087Z,10.80
2023-03-22T12:49:26.548Z,10.70
2023-03-22T12:51:31.640Z,10.70
2023-03-22T12:53:42.406Z,10.50
2023-03-22T12:55:47.361Z,10.60
2023-03-22T12:57:52.633Z,10.60
2023-03-22T12:59:58.256Z,10.60
2023-03-22T13:02:10.718Z,10.50
2023-03-22T13:04:46.880Z,10.50
2023-03-22T13:07:08.452Z,10.70
2023-03-22T13:09:17.124Z,10.50
2023-03-22T13:11:24.041Z,10.60
2023-03-22T13:13:44.069Z,10.50
2023-03-22T13:16:02.423Z,10.50
2023-03-22T13:18:05.082Z,10.50
2023-03-22T13:20:34.150Z,10.50
2023-03-22T13:23:04.662Z,10.50
2023-03-22T13:25:13.739Z,10.50
2023-03-22T13:27:16.624Z,10.50
2023-03-22T13:29:21.969Z,11.00
2023-03-22T13:31:41.358Z,10.50
2023-03-22T13:33:52.797Z,10.50
2023-03-22T13:35:57.860Z,10.50
2023-03-22T13:38:08.571Z,10.50
2023-03-22T13:40:22.264Z,10.60
2023-03-22T13:42:35.811Z,10.50
2023-03-22T13:44:41.998Z,10.50
2023-03-22T13:46:49.557Z,10.50
2023-03-22T13:48:57.957Z,11.30
2023-03-22T13:51:12.150Z,10.40
2023-03-22T13:53:23.573Z,10.40
2023-03-22T13:55:41.375Z,10.40
2023-03-22T13:57:58.933Z,10.40
2023-03-22T14:00:12.182Z,10.40
2023-03-22T14:02:22.373Z,10.80
2023-03-22T14:04:35.157Z,10.40
2023-03-22T14:06:47.441Z,10.80
2023-03-22T14:08:57.348Z,10.80
2023-03-22T14:11:07.683Z,10.30
2023-03-22T14:13:17.480Z,10.40
2023-03-22T14:15:23.831Z,10.30
2023-03-22T14:17:34.376Z,10.30
2023-03-22T14:19:37.796Z,10.30
2023-03-22T14:21:43.160Z,11.10
2023-03-22T14:53:19.057Z,10.50
2023-03-22T14:55:25.227Z,10.50
2023-03-22T14:57:36.797Z,10.50
2023-03-22T14:59:43.555Z,10.50
2023-03-22T15:01:49.560Z,11.00
2023-03-22T15:03:57.819Z,10.70
2023-03-22T15:06:01.277Z,10.50
2023-03-22T15:08:09.016Z,10.60
2023-03-22T15:10:13.454Z,10.60
2023-03-22T15:12:18.219Z,10.60
2023-03-22T15:14:21.255Z,10.60
2023-03-22T15:16:32.944Z,10.60
2023-03-22T15:18:36.498Z,10.60
2023-03-22T15:20:39.943Z,10.90
2023-03-22T15:22:49.779Z,10.60
2023-03-22T15:24:54.120Z,10.60
2023-03-22T15:26:56.818Z,10.60
2023-03-22T15:29:05.063Z,11.10
2023-03-22T15:31:19.006Z,10.70
2023-03-22T15:33:27.671Z,10.60
2023-03-22T15:35:31.723Z,10.80
2023-03-22T15:37:36.581Z,10.60
2023-03-22T15:39:41.731Z,10.70
2023-03-22T15:41:49.756Z,10.60
2023-03-22T15:44:06.277Z,10.60
2023-03-22T15:46:19.862Z,10.60
2023-03-22T15:48:29.900Z,10.60
2023-03-22T15:50:37.436Z,10.70
2023-03-22T15:52:50.749Z,10.70
2023-03-22T15:55:03.972Z,10.70
2023-03-22T15:57:11.504Z,10.60
2023-03-22T15:59:25.900Z,10.60
2023-03-22T16:01:35.046Z,11.00
2023-03-22T16:03:48.878Z,10.70
2023-03-22T16:05:51.429Z,10.60
2023-03-22T16:07:56.065Z,10.80
2023-03-22T16:09:58.952Z,10.70
2023-03-22T16:12:01.851Z,10.70
2023-03-22T16:14:04.449Z,10.70
2023-03-22T16:16:10.809Z,10.70
2023-03-22T16:18:16.824Z,10.70
2023-03-22T16:20:22.147Z,10.80
2023-03-22T16:22:24.860Z,10.70
2023-03-22T16:24:27.378Z,11.20
2023-03-22T16:26:30.149Z,10.70
2023-03-22T16:28:32.761Z,10.70
2023-03-22T16:30:55.148Z,10.30
2023-03-22T16:33:00.282Z,10.80
2023-03-22T16:35:03.726Z,10.70
2023-03-22T16:37:13.464Z,10.80
2023-03-22T16:39:16.130Z,10.80
2023-03-22T16:41:24.566Z,11.00
2023-03-22T16:43:27.087Z,10.80
2023-03-22T16:45:31.220Z,10.80
2023-03-22T16:47:37.646Z,11.30
2023-03-22T16:49:40.265Z,10.70
2023-03-22T16:51:42.834Z,10.70
2023-03-22T16:53:48.642Z,10.70
2023-03-22T16:55:51.877Z,10.70
2023-03-22T16:57:55.226Z,10.70
2023-03-22T17:00:02.506Z,10.70
2023-03-22T17:02:11.782Z,10.80
2023-03-22T17:04:14.421Z,10.70
2023-03-22T17:06:19.477Z,10.70
2023-03-22T17:08:23.310Z,10.70
2023-03-22T17:10:30.553Z,11.70
2023-03-22T17:12:38.462Z,11.10
2023-03-22T17:14:41.173Z,10.70
2023-03-22T17:16:44.152Z,11.30
2023-03-22T17:18:46.952Z,10.70
2023-03-22T17:20:49.655Z,10.60
2023-03-22T17:22:52.694Z,10.70
2023-03-22T17:24:57.123Z,10.60
2023-03-22T17:27:03.143Z,10.60
2023-03-22T17:29:06.081Z,10.60
2023-03-22T17:31:09.010Z,10.40
2023-03-22T17:33:12.850Z,11.10
2023-03-22T17:35:19.285Z,10.60
2023-03-22T17:37:22.002Z,10.60
2023-03-22T17:39:50.170Z,10.60
2023-03-22T17:41:47.055Z,10.60
2023-03-22T17:43:52.232Z,10.60
2023-03-22T17:46:38.274Z,10.60
2023-03-22T17:48:17.518Z,10.60
2023-03-22T17:50:20.552Z,10.60
2023-03-22T17:52:23.641Z,10.80
2023-03-22T17:57:04.969Z,10.60
2023-03-22T17:59:03.566Z,11.20
2023-03-22T18:01:06.617Z,10.60
2023-03-22T18:03:09.445Z,10.60
2023-03-22T18:05:14.263Z,10.60
2023-03-22T18:07:18.337Z,10.60
2023-03-22T18:09:21.319Z,11.10
2023-03-22T18:11:23.907Z,10.60
2023-03-22T18:13:26.820Z,10.60
2023-03-22T18:15:31.991Z,10.50
2023-03-22T18:17:34.503Z,10.90
2023-03-22T18:19:37.166Z,10.00
2023-03-22T18:21:39.749Z,10.60
2023-03-22T18:23:43.324Z,10.60
2023-03-22T18:25:45.765Z,10.60
2023-03-22T18:27:49.748Z,10.60
2023-03-22T18:29:52.575Z,10.60
2023-03-22T18:32:08.918Z,10.60
2023-03-22T18:34:20.633Z,10.60
2023-03-22T18:36:24.495Z,10.60
2023-03-22T18:41:25.619Z,10.70
2023-03-22T18:43:13.600Z,10.60
2023-03-22T18:45:18.594Z,10.80
2023-03-22T18:47:23.761Z,10.10
2023-03-22T18:49:26.265Z,10.60
2023-03-22T18:53:31.919Z,10.60
2023-03-22T18:57:39.218Z,10.70
2023-03-22T18:59:41.847Z,10.60
2023-03-22T19:01:46.313Z,10.70
2023-03-22T19:03:57.067Z,10.70
2023-03-22T19:06:09.331Z,11.00
2023-03-22T19:08:25.881Z,10.70
2023-03-22T19:10:29.777Z,11.10
2023-03-22T19:12:32.291Z,10.70
2023-03-22T19:16:40.365Z,10.60
2023-03-22T19:18:44.928Z,10.60
2023-03-22T19:21:06.005Z,10.80
2023-03-22T19:23:12.610Z,10.60
2023-03-22T19:25:15.538Z,10.60
2023-03-22T19:27:21.285Z,10.70
2023-03-22T19:29:28.605Z,10.70
2023-03-22T19:31:31.984Z,10.70
2023-03-22T19:33:52.855Z,10.70
2023-03-22T19:36:00.459Z,10.70
2023-03-22T19:38:03.841Z,10.70
2023-03-22T19:41:08.146Z,10.70
2023-03-22T19:42:36.619Z,10.70
2023-03-22T19:44:39.343Z,11.40
2023-03-22T19:46:43.280Z,10.80
2023-03-22T19:48:46.595Z,11.00
2023-03-22T19:50:49.800Z,10.70
2023-03-22T19:52:57.850Z,10.70
2023-03-22T19:55:01.733Z,11.40
2023-03-22T19:57:04.689Z,10.80
2023-03-22T19:59:11.789Z,10.80
2023-03-22T20:01:14.557Z,10.70
2023-03-22T20:03:18.141Z,10.80
2023-03-22T20:05:21.023Z,10.70
2023-03-22T20:07:27.404Z,10.80
2023-03-22T20:09:32.616Z,10.70
2023-03-22T20:11:43.433Z,10.70
2023-03-22T20:13:46.231Z,11.40
2023-03-22T20:15:48.924Z,10.80
2023-03-22T20:17:51.395Z,10.80
2023-03-22T20:19:54.009Z,10.80
2023-03-22T20:21:56.680Z,10.80
2023-03-22T20:24:00.511Z,10.70
2023-03-22T20:26:06.792Z,10.80
2023-03-22T20:28:09.371Z,10.80
2023-03-22T20:30:13.954Z,11.00
2023-03-22T20:32:16.952Z,10.80
2023-03-22T20:34:21.180Z,10.80
2023-03-22T20:36:24.290Z,11.30
2023-03-22T20:38:27.657Z,10.80
2023-03-22T20:40:30.398Z,10.80
2023-03-22T20:42:36.415Z,10.80
2023-03-22T20:44:38.943Z,10.80
2023-03-22T20:46:44.049Z,10.80
2023-03-22T20:48:46.800Z,10.80
2023-03-22T20:50:52.310Z,10.80
2023-03-22T20:52:54.853Z,10.90
2023-03-22T20:54:57.395Z,10.90
2023-03-22T20:57:00.136Z,10.90
2023-03-22T20:59:06.488Z,11.50
2023-03-22T21:01:10.884Z,11.20
2023-03-22T21:03:13.731Z,10.90
2023-03-22T21:05:16.761Z,10.80
2023-03-22T21:07:22.210Z,10.80
2023-03-22T21:09:24.825Z,10.90
2023-03-22T21:11:27.484Z,10.80
2023-03-22T21:13:30.002Z,10.80
2023-03-22T21:15:35.302Z,11.40
2023-03-22T21:17:38.298Z,10.90
2023-03-22T21:19:41.085Z,10.80
2023-03-22T21:21:43.648Z,10.80
2023-03-22T21:23:47.273Z,10.90
2023-03-22T21:25:54.208Z,10.70
2023-03-22T21:27:57.575Z,11.90
2023-03-22T21:30:00.642Z,11.60
2023-03-22T21:32:07.890Z,10.80
2023-03-22T21:34:10.930Z,10.80
2023-03-22T21:36:13.831Z,10.80
2023-03-22T21:38:20.708Z,11.80
2023-03-22T21:40:25.944Z,11.40
2023-03-22T21:42:28.536Z,11.50
2023-03-22T21:44:32.335Z,10.80
2023-03-22T21:46:38.215Z,10.80
2023-03-22T21:48:44.686Z,11.10
2023-03-22T21:50:47.794Z,10.80
2023-03-22T21:52:53.748Z,10.80
2023-03-22T21:54:58.981Z,10.80
2023-03-22T21:57:01.447Z,11.10
2023-03-22T21:59:04.661Z,10.80
2023-03-22T22:01:07.850Z,10.70
2023-03-22T22:03:11.424Z,10.80
2023-03-22T22:05:18.556Z,11.00
2023-03-22T22:07:21.848Z,10.70
2023-03-22T22:09:24.416Z,10.70
2023-03-22T22:11:32.970Z,10.80
2023-03-22T22:13:37.209Z,10.80
2023-03-22T22:15:39.925Z,11.70
2023-03-22T22:17:43.585Z,10.90
2023-03-22T22:19:46.106Z,11.60
2023-03-22T22:21:51.580Z,10.90
2023-03-22T22:23:54.067Z,11.40
2023-03-22T22:25:57.964Z,11.30
2023-03-22T22:28:00.473Z,11.30
2023-03-22T22:30:03.822Z,10.90
2023-03-22T22:32:08.169Z,10.90
2023-03-22T22:34:11.810Z,10.90
2023-03-22T22:36:14.343Z,10.90
2023-03-22T22:38:19.468Z,11.20
2023-03-22T22:40:21.935Z,10.80
2023-03-22T22:42:25.315Z,10.80
2023-03-22T22:44:27.820Z,10.80
2023-03-22T22:46:30.728Z,10.50
2023-03-22T22:48:33.365Z,10.80
2023-03-22T22:50:36.713Z,10.80
2023-03-22T22:52:40.370Z,10.70
2023-03-22T22:54:45.511Z,10.80
2023-03-22T22:56:48.072Z,10.90
2023-03-22T22:58:51.243Z,10.70
2023-03-22T23:00:53.839Z,10.80
2023-03-22T23:02:56.328Z,10.70
2023-03-22T23:04:58.878Z,11.00
2023-03-22T23:07:01.667Z,10.70
2023-03-22T23:09:05.311Z,10.70
2023-03-22T23:11:14.919Z,10.70
2023-03-22T23:13:18.991Z,10.70
2023-03-22T23:15:27.377Z,11.70
2023-03-22T23:17:31.142Z,10.60
2023-03-22T23:19:38.501Z,10.60
2023-03-22T23:21:47.272Z,11.60
2023-03-22T23:23:50.553Z,10.50
2023-03-22T23:25:53.367Z,10.50
2023-03-22T23:28:02.509Z,11.30
2023-03-22T23:30:10.384Z,10.50
2023-03-22T23:32:13.182Z,10.50
2023-03-22T23:34:16.652Z,10.40
2023-03-22T23:36:20.604Z,10.50
2023-03-22T23:38:23.172Z,10.40
2023-03-22T23:40:26.818Z,10.50
2023-03-22T23:42:30.397Z,10.40
2023-03-22T23:44:36.100Z,10.40
2023-03-22T23:46:39.366Z,10.40
2023-03-22T23:48:42.591Z,10.40
2023-03-22T23:50:45.236Z,10.40
2023-03-22T23:52:47.977Z,10.40
2023-03-22T23:54:50.893Z,10.40
2023-03-22T23:56:55.366Z,10.40
2023-03-22T23:58:58.180Z,11.00
